Time;durP1;ratioP1;P1;durP2;ratioP2;P2;SDS_P1;SDS_P2;PMS_P1;PMS_P2;Temp;Humidity;BMP_temperature;BMP_pressure;BME280_temperature;BME280_humidity;BME280_pressure;Samples;Min_cycle;Max_cycle;Signal;HPM_P1;HPM_P2
2020/12/08 00:00:44;;;;;;;2.17;0.30;;;;;;;7.65;92.07;99969.50;4983521;28;20216;-79
2020/12/08 00:03:10;;;;;;;1.60;0.30;;;;;;;7.67;92.18;99965.34;4985256;28;20301;-79
2020/12/08 00:05:36;;;;;;;1.20;0.30;;;;;;;7.72;91.93;99967.00;4986676;28;22065;-79
2020/12/08 00:08:04;;;;;;;1.67;0.30;;;;;;;7.62;92.34;99962.97;4979072;28;20445;-79
2020/12/08 00:10:30;;;;;;;1.67;0.30;;;;;;;7.57;92.28;99968.59;4981240;28;20669;-78
2020/12/08 00:12:55;;;;;;;1.50;0.30;;;;;;;7.54;92.66;99966.63;4977541;28;20462;-79
2020/12/08 00:15:21;;;;;;;1.30;0.20;;;;;;;7.57;92.34;99959.78;4988755;28;20473;-78
2020/12/08 00:17:47;;;;;;;1.53;0.20;;;;;;;7.57;92.19;99962.47;4979448;28;20196;-79
2020/12/08 00:20:21;;;;;;;2.03;0.30;;;;;;;7.63;92.45;99969.09;4977738;28;20174;-78
2020/12/08 00:22:46;;;;;;;2.23;0.37;;;;;;;7.64;92.71;99966.06;4976439;28;20540;-78
2020/12/08 00:25:12;;;;;;;1.87;0.40;;;;;;;7.68;92.37;99958.09;4976984;28;20535;-79
2020/12/08 00:27:39;;;;;;;1.73;0.40;;;;;;;7.63;91.76;99969.09;4979571;28;20173;-78
2020/12/08 00:30:10;;;;;;;1.53;0.30;;;;;;;7.64;91.73;99965.28;4972882;28;20506;-78
2020/12/08 00:32:37;;;;;;;1.40;0.30;;;;;;;7.49;91.56;99958.84;4979296;28;20468;-78
2020/12/08 00:35:03;;;;;;;2.90;0.50;;;;;;;7.64;92.12;99960.72;4992423;28;20495;-78
2020/12/08 00:37:28;;;;;;;1.77;0.33;;;;;;;7.66;91.70;99971.84;4991681;28;20445;-78
2020/12/08 00:39:54;;;;;;;1.80;0.40;;;;;;;7.70;91.49;99953.94;4987965;28;20186;-78
2020/12/08 00:42:19;;;;;;;1.80;0.40;;;;;;;7.70;91.21;99951.28;5001775;28;20190;-79
2020/12/08 00:44:45;;;;;;;1.67;0.30;;;;;;;7.75;91.42;99959.03;4989242;28;20221;-78
2020/12/08 00:47:10;;;;;;;1.83;0.43;;;;;;;7.74;91.68;99948.66;4977497;28;20252;-79
2020/12/08 00:49:36;;;;;;;1.87;0.40;;;;;;;7.78;91.39;99944.16;4992125;28;20653;-78
2020/12/08 00:52:02;;;;;;;2.20;0.30;;;;;;;7.78;91.45;99941.47;4987476;28;20647;-78
2020/12/08 00:54:32;;;;;;;1.70;0.20;;;;;;;7.83;91.31;99943.84;4999661;28;20208;-78
2020/12/08 00:57:04;;;;;;;2.00;0.37;;;;;;;7.75;90.85;99948.31;4987406;28;20514;-78
2020/12/08 00:59:30;;;;;;;1.30;0.20;;;;;;;7.63;91.01;99953.00;5000583;28;20440;-78
2020/12/08 01:02:00;;;;;;;3.23;0.50;;;;;;;7.62;91.31;99948.78;4986148;28;20648;-78
2020/12/08 01:04:28;;;;;;;2.03;0.50;;;;;;;7.68;91.02;99960.78;4986405;28;20592;-78
2020/12/08 01:06:54;;;;;;;1.73;0.43;;;;;;;7.60;91.20;99965.22;4978330;28;20452;-78
2020/12/08 01:09:20;;;;;;;1.73;0.30;;;;;;;7.63;91.55;99953.78;4991326;28;20467;-78
2020/12/08 01:11:46;;;;;;;2.40;0.40;;;;;;;7.64;91.42;99955.34;4975657;28;20429;-78
2020/12/08 01:14:18;;;;;;;1.70;0.30;;;;;;;7.67;91.18;99968.03;4986034;28;20296;-78
2020/12/08 01:16:44;;;;;;;2.20;0.50;;;;;;;7.69;91.32;99960.41;4995830;28;20591;-78
2020/12/08 01:19:09;;;;;;;2.23;0.40;;;;;;;7.61;91.21;99968.66;4986121;28;20182;-78
2020/12/08 01:21:36;;;;;;;2.60;0.50;;;;;;;7.62;91.77;99962.97;4996383;28;20173;-78
2020/12/08 01:24:01;;;;;;;2.13;0.40;;;;;;;7.59;92.01;99965.59;4990410;28;20233;-78
2020/12/08 01:26:27;;;;;;;1.80;0.50;;;;;;;7.65;91.83;99961.47;4981388;28;20444;-78
2020/12/08 01:28:56;;;;;;;1.50;0.40;;;;;;;7.67;91.70;99954.63;4992816;28;20209;-78
2020/12/08 01:31:30;;;;;;;1.57;0.20;;;;;;;7.72;91.48;99959.75;4991343;28;20427;-78
2020/12/08 01:33:57;;;;;;;1.87;0.53;;;;;;;7.74;91.49;99956.69;4991963;28;20458;-78
2020/12/08 01:36:22;;;;;;;1.83;0.40;;;;;;;7.75;91.45;99968.94;4997834;28;20547;-78
2020/12/08 01:38:48;;;;;;;1.60;0.30;;;;;;;7.76;91.41;99965.16;4991072;28;20444;-78
2020/12/08 01:41:14;;;;;;;3.10;0.37;;;;;;;7.71;91.54;99954.69;4991577;28;20265;-80
2020/12/08 01:44:06;;;;;;;1.67;0.43;;;;;;;7.73;91.64;99965.84;5002616;28;20464;-79
2020/12/08 01:46:35;;;;;;;2.33;0.67;;;;;;;7.77;91.54;99950.63;4991808;28;20463;-79
2020/12/08 01:49:01;;;;;;;2.03;0.37;;;;;;;7.77;91.46;99958.66;4986830;28;20436;-80
2020/12/08 01:51:27;;;;;;;1.30;0.20;;;;;;;7.79;91.58;99956.41;4984787;28;20529;-79
2020/12/08 01:53:54;;;;;;;1.70;0.43;;;;;;;7.78;91.53;99957.53;4983570;28;20472;-79
2020/12/08 01:56:28;;;;;;;1.93;0.47;;;;;;;7.78;91.42;99955.63;4986792;28;20467;-80
2020/12/08 01:59:00;;;;;;;1.70;0.30;;;;;;;7.79;91.36;99953.72;4999144;28;20448;-80
2020/12/08 02:01:29;;;;;;;2.20;0.53;;;;;;;7.77;91.76;99958.66;4970667;28;20445;-80
2020/12/08 02:03:56;;;;;;;1.77;0.30;;;;;;;7.75;91.91;99955.56;4986859;28;20461;-80
2020/12/08 02:06:24;;;;;;;1.50;0.30;;;;;;;7.77;91.67;99955.97;4978133;28;20534;-80
2020/12/08 02:08:50;;;;;;;1.87;0.47;;;;;;;7.76;91.63;99962.47;4997674;28;20444;-77
2020/12/08 02:11:25;;;;;;;2.40;0.43;;;;;;;7.73;91.81;99966.63;4983598;28;20882;-79
2020/12/08 02:13:51;;;;;;;1.40;0.30;;;;;;;7.68;91.96;99971.50;4988780;28;20452;-80
2020/12/08 02:16:20;;;;;;;2.80;0.60;;;;;;;7.59;92.26;99970.94;4978920;28;20485;-78
2020/12/08 02:18:46;;;;;;;1.60;0.30;;;;;;;7.70;91.97;99964.66;4992756;28;20960;-79
2020/12/08 02:21:12;;;;;;;1.63;0.30;;;;;;;7.66;92.18;99957.69;4983423;28;20445;-79
2020/12/08 02:23:50;;;;;;;2.80;0.40;;;;;;;7.67;91.92;99962.69;4972964;28;20208;-81
2020/12/08 02:26:17;;;;;;;1.60;0.20;;;;;;;7.66;92.38;99971.06;4982772;28;20942;-80
2020/12/08 02:28:43;;;;;;;2.10;0.40;;;;;;;7.58;92.44;99964.78;5005598;28;20433;-80
2020/12/08 02:31:11;;;;;;;1.57;0.23;;;;;;;7.66;92.61;99974.53;4988614;28;20961;-81
2020/12/08 02:33:37;;;;;;;1.57;0.40;;;;;;;7.60;92.50;99967.13;4991637;28;20464;-80
2020/12/08 02:36:05;;;;;;;2.77;0.73;;;;;;;7.67;92.52;99959.22;4988205;28;20205;-80
2020/12/08 02:38:31;;;;;;;1.77;0.33;;;;;;;7.61;92.43;99968.66;4978701;28;20438;-80
2020/12/08 02:40:57;;;;;;;1.87;0.30;;;;;;;7.63;92.51;99958.38;4979630;28;20514;-79
2020/12/08 02:43:24;;;;;;;2.53;0.57;;;;;;;7.63;92.47;99959.16;4979095;28;20584;-80
2020/12/08 02:45:52;;;;;;;2.20;0.40;;;;;;;7.61;92.51;99965.97;4997561;28;20449;-81
2020/12/08 02:48:18;;;;;;;1.80;0.30;;;;;;;7.62;92.71;99967.53;4991129;28;20437;-80
2020/12/08 02:50:44;;;;;;;1.93;0.47;;;;;;;7.59;92.88;99968.25;4987677;28;20264;-80
2020/12/08 02:53:10;;;;;;;1.80;0.30;;;;;;;7.53;93.01;99964.31;4987366;28;20579;-80
2020/12/08 02:55:36;;;;;;;1.97;0.47;;;;;;;7.60;93.00;99962.53;4990672;28;20468;-80
2020/12/08 02:58:02;;;;;;;1.50;0.30;;;;;;;7.55;92.96;99956.69;4990376;28;20288;-80
2020/12/08 03:00:28;;;;;;;1.37;0.30;;;;;;;7.52;93.00;99963.53;4977999;28;20186;-80
2020/12/08 03:02:54;;;;;;;2.20;0.60;;;;;;;7.42;93.41;99956.03;4982055;28;20463;-80
2020/12/08 03:05:20;;;;;;;1.53;0.30;;;;;;;7.47;93.26;99955.00;4983348;28;20452;-80
2020/12/08 03:07:48;;;;;;;1.70;0.20;;;;;;;7.51;93.27;99953.91;4988212;28;20594;-81
2020/12/08 03:10:14;;;;;;;1.90;0.40;;;;;;;7.51;93.13;99953.16;4983667;28;20519;-82
2020/12/08 03:12:39;;;;;;;2.67;0.40;;;;;;;7.56;93.29;99963.59;4990695;28;20260;-78
2020/12/08 03:15:05;;;;;;;1.70;0.50;;;;;;;7.58;93.22;99964.00;4988222;28;20728;-79
2020/12/08 03:17:37;;;;;;;1.40;0.30;;;;;;;7.55;93.12;99968.16;4994357;28;20424;-79
2020/12/08 03:20:05;;;;;;;1.70;0.27;;;;;;;7.57;93.15;99971.25;4991227;28;20458;-78
2020/12/08 03:22:35;;;;;;;2.50;0.60;;;;;;;7.60;93.19;99972.47;4982096;28;20468;-78
2020/12/08 03:25:05;;;;;;;2.30;0.33;;;;;;;7.52;93.12;99979.59;5006764;28;20531;-78
2020/12/08 03:27:31;;;;;;;2.60;0.60;;;;;;;7.56;93.21;99968.94;4995186;28;20809;-79
2020/12/08 03:29:59;;;;;;;2.07;0.40;;;;;;;7.53;93.43;99977.69;4990967;28;20511;-79
2020/12/08 03:32:27;;;;;;;1.80;0.50;;;;;;;7.47;93.46;99977.16;4988022;28;20440;-78
2020/12/08 03:34:53;;;;;;;1.27;0.20;;;;;;;7.55;93.40;99975.44;4982594;28;20502;-77
2020/12/08 03:37:18;;;;;;;1.73;0.37;;;;;;;7.54;93.43;99971.19;4991685;28;20452;-79
2020/12/08 03:39:45;;;;;;;1.80;0.40;;;;;;;7.50;93.47;99978.38;4981330;28;20185;-79
2020/12/08 03:42:13;;;;;;;2.27;0.40;;;;;;;7.51;93.62;99977.28;4976263;28;20445;-78
2020/12/08 03:44:41;;;;;;;3.13;0.53;;;;;;;7.57;93.57;99970.50;4994424;28;20543;-81
2020/12/08 03:47:17;;;;;;;1.90;0.40;;;;;;;7.58;93.64;99975.50;4999137;28;20436;-80
2020/12/08 03:49:43;;;;;;;1.60;0.23;;;;;;;7.57;93.41;99970.50;4991019;28;20441;-79
2020/12/08 03:52:09;;;;;;;2.50;0.67;;;;;;;7.56;93.50;99979.66;4989552;28;20182;-78
2020/12/08 03:54:36;;;;;;;2.13;0.40;;;;;;;7.53;93.67;99981.13;4994582;28;20784;-78
2020/12/08 03:57:06;;;;;;;1.80;0.30;;;;;;;7.58;93.46;99978.19;4983844;28;20618;-80
2020/12/08 03:59:33;;;;;;;2.23;0.30;;;;;;;7.61;93.32;99987.41;4990796;28;20440;-78
2020/12/08 04:02:05;;;;;;;2.43;0.50;;;;;;;7.60;93.44;99991.22;4991616;28;20452;-79
2020/12/08 04:04:31;;;;;;;1.53;0.30;;;;;;;7.61;93.47;99990.09;4989739;28;20598;-78
2020/12/08 04:06:57;;;;;;;1.90;0.50;;;;;;;7.33;93.88;99995.63;4997750;28;20417;-78
2020/12/08 04:09:23;;;;;;;1.90;0.50;;;;;;;7.44;93.95;99990.50;4989938;28;20190;-78
2020/12/08 04:11:48;;;;;;;1.53;0.30;;;;;;;7.50;93.94;99991.78;4985516;28;20200;-79
2020/12/08 04:14:15;;;;;;;2.20;0.50;;;;;;;7.41;94.09;99985.84;4986682;28;20220;-78
2020/12/08 04:17:04;;;;;;;2.80;1.00;;;;;;;7.49;94.27;99992.91;4976883;28;20563;-78
2020/12/08 04:19:30;;;;;;;1.97;0.53;;;;;;;7.52;94.25;99989.53;4947755;29;20951;-79
2020/12/08 04:22:00;;;;;;;2.80;0.37;;;;;;;7.50;93.91;99986.41;4948695;29;20422;-78
2020/12/08 04:24:34;;;;;;;2.17;0.50;;;;;;;7.52;93.88;99994.88;4949755;28;20613;-78
2020/12/08 04:27:00;;;;;;;1.60;0.30;;;;;;;7.52;94.01;99989.53;4950311;29;21026;-78
2020/12/08 04:29:36;;;;;;;2.20;0.67;;;;;;;7.46;94.15;99986.34;4935324;29;20951;-78
2020/12/08 04:32:04;;;;;;;2.07;0.40;;;;;;;7.48;94.21;99989.44;4951043;29;20451;-78
2020/12/08 04:34:30;;;;;;;2.00;0.20;;;;;;;7.53;94.23;99999.13;4949972;29;21014;-78
2020/12/08 04:36:58;;;;;;;1.47;0.20;;;;;;;7.44;93.81;99996.63;4950279;28;20490;-78
2020/12/08 04:39:24;;;;;;;3.50;0.50;;;;;;;7.22;94.63;100003.41;4949839;29;20446;-78
2020/12/08 04:41:53;;;;;;;3.23;0.80;;;;;;;7.25;94.68;100004.63;4950718;29;20454;-79
2020/12/08 04:44:19;;;;;;;1.90;0.50;;;;;;;7.34;94.37;100004.44;4949005;29;20222;-79
2020/12/08 04:46:47;;;;;;;2.23;0.83;;;;;;;7.40;94.43;100005.69;4950337;29;20435;-78
2020/12/08 04:49:13;;;;;;;2.30;0.37;;;;;;;7.35;94.55;100003.31;4948945;29;20940;-78
2020/12/08 04:51:39;;;;;;;2.23;0.40;;;;;;;7.36;94.10;100008.31;4950966;29;20819;-78
2020/12/08 04:54:25;;;;;;;1.27;0.23;;;;;;;7.22;94.59;100007.97;4950365;29;20446;-81
2020/12/08 04:56:51;;;;;;;2.17;0.30;;;;;;;7.22;94.94;100008.75;4943797;28;20234;-77
2020/12/08 04:59:21;;;;;;;2.10;0.63;;;;;;;7.20;94.82;100004.91;4949751;28;20445;-80
2020/12/08 05:01:46;;;;;;;1.63;0.40;;;;;;;7.27;94.46;100005.06;4967574;28;20213;-77
2020/12/08 05:04:12;;;;;;;3.10;0.40;;;;;;;7.22;95.12;100006.09;4961004;28;20474;-78
2020/12/08 05:06:58;;;;;;;1.93;0.50;;;;;;;7.29;94.45;100008.94;4955417;28;20563;-78
2020/12/08 05:09:25;;;;;;;2.43;0.60;;;;;;;7.20;94.54;100007.56;4947086;29;20706;-77
2020/12/08 05:11:55;;;;;;;2.83;0.70;;;;;;;7.22;94.61;100007.97;4948932;29;20450;-78
2020/12/08 05:14:20;;;;;;;2.30;0.57;;;;;;;7.29;94.60;100006.25;4949801;28;20700;-77
2020/12/08 05:16:46;;;;;;;2.30;0.40;;;;;;;7.36;94.22;100007.53;4948078;29;20510;-77
2020/12/08 05:19:11;;;;;;;3.87;0.70;;;;;;;7.36;94.01;100015.56;4947950;29;20190;-78
2020/12/08 05:21:47;;;;;;;2.63;0.73;;;;;;;7.35;94.01;100012.13;4949835;28;20195;-78
2020/12/08 05:24:32;;;;;;;1.47;0.23;;;;;;;7.37;94.20;100011.78;4947914;28;20202;-78
2020/12/08 05:27:00;;;;;;;2.27;0.73;;;;;;;7.35;94.14;100003.31;4946815;29;20450;-78
2020/12/08 05:29:29;;;;;;;1.50;0.30;;;;;;;7.40;94.04;100008.38;4945886;28;20541;-78
2020/12/08 05:31:55;;;;;;;1.37;0.30;;;;;;;7.35;94.23;100003.31;4947706;28;20454;-78
2020/12/08 05:34:23;;;;;;;1.90;0.30;;;;;;;7.29;94.23;99987.53;4975334;28;20456;-78
2020/12/08 05:36:53;;;;;;;2.63;0.60;;;;;;;7.32;93.90;100000.19;4983633;28;20518;-78
2020/12/08 05:39:23;;;;;;;2.57;0.40;;;;;;;7.40;93.80;99997.66;4972219;28;20476;-78
2020/12/08 05:41:50;;;;;;;2.50;0.60;;;;;;;7.39;93.99;100004.94;4986284;28;22100;-79
2020/12/08 05:44:24;;;;;;;2.37;0.50;;;;;;;7.38;94.12;99991.88;4986407;28;20456;-79
2020/12/08 05:46:52;;;;;;;1.97;0.50;;;;;;;7.30;93.93;99994.41;4979982;28;20800;-78
2020/12/08 05:49:18;;;;;;;3.60;0.60;;;;;;;7.26;93.84;99993.56;4978170;28;20475;-79
2020/12/08 05:51:46;;;;;;;2.50;0.63;;;;;;;7.29;94.27;99997.44;4979381;28;20449;-78
2020/12/08 05:54:21;;;;;;;1.97;0.40;;;;;;;7.24;94.07;100003.84;4979758;28;20505;-78
2020/12/08 05:56:48;;;;;;;2.07;0.50;;;;;;;7.34;94.38;100009.81;4984562;28;20465;-78
2020/12/08 05:59:26;;;;;;;2.83;0.80;;;;;;;7.34;94.11;100001.78;4982389;28;20840;-79
2020/12/08 06:01:52;;;;;;;2.67;0.40;;;;;;;7.23;94.14;100009.53;4984881;28;20555;-78
2020/12/08 06:04:18;;;;;;;2.73;0.60;;;;;;;7.21;94.05;100004.53;4995392;28;20558;-79
2020/12/08 06:06:51;;;;;;;1.90;0.47;;;;;;;7.24;94.41;100003.84;4977871;28;20185;-78
2020/12/08 06:09:22;;;;;;;2.00;0.70;;;;;;;7.28;94.07;100009.28;4974405;28;20445;-78
2020/12/08 06:11:48;;;;;;;1.70;0.50;;;;;;;7.36;94.04;100012.88;4978231;28;20949;-78
2020/12/08 06:14:13;;;;;;;1.50;0.30;;;;;;;7.34;93.64;100017.84;4980823;28;20457;-78
2020/12/08 06:16:39;;;;;;;2.07;0.47;;;;;;;7.32;93.65;100013.59;4997964;28;20198;-78
2020/12/08 06:19:04;;;;;;;2.73;0.50;;;;;;;7.37;94.01;100023.25;4981199;28;20189;-77
2020/12/08 06:21:50;;;;;;;2.33;0.53;;;;;;;7.40;93.89;100019.09;4976803;28;20197;-78
2020/12/08 06:24:15;;;;;;;2.00;0.40;;;;;;;7.30;94.12;100018.50;4982387;28;20212;-78
2020/12/08 06:26:41;;;;;;;2.13;0.40;;;;;;;7.35;94.08;100024.72;4975702;28;20437;-79
2020/12/08 06:29:08;;;;;;;1.43;0.20;;;;;;;7.34;94.10;100025.88;4980099;28;20204;-79
2020/12/08 06:31:43;;;;;;;1.40;0.30;;;;;;;7.30;93.82;100031.13;4979092;28;20197;-79
2020/12/08 06:34:17;;;;;;;2.20;0.40;;;;;;;7.31;93.90;100027.34;4985404;28;20472;-78
2020/12/08 06:36:43;;;;;;;2.97;0.70;;;;;;;7.36;93.81;100036.97;4974246;28;20487;-79
2020/12/08 06:39:08;;;;;;;2.10;0.60;;;;;;;7.35;93.61;100035.44;4979593;28;20429;-79
2020/12/08 06:41:37;;;;;;;2.50;0.50;;;;;;;7.34;93.60;100036.59;4985564;28;20197;-78
2020/12/08 06:44:26;;;;;;;2.00;0.40;;;;;;;7.35;93.55;100036.22;4989090;28;20642;-79
2020/12/08 06:46:57;;;;;;;2.00;0.50;;;;;;;7.26;93.48;100039.06;4907412;29;21011;-79
2020/12/08 06:49:23;;;;;;;2.90;0.70;;;;;;;7.20;93.51;100048.50;4904851;29;20451;-80
2020/12/08 06:51:57;;;;;;;2.90;0.73;;;;;;;7.22;93.62;100048.13;4889268;29;20436;-79
2020/12/08 06:54:24;;;;;;;1.60;0.40;;;;;;;7.25;93.69;100052.81;4906210;29;20491;-79
2020/12/08 06:56:50;;;;;;;1.80;0.40;;;;;;;7.30;93.62;100049.88;4906701;29;20486;-79
2020/12/08 06:59:26;;;;;;;2.47;0.70;;;;;;;7.15;93.21;100048.78;4906744;29;20456;-79
2020/12/08 07:01:52;;;;;;;1.67;0.50;;;;;;;7.23;93.48;100042.47;4920492;29;20458;-79
2020/12/08 07:04:19;;;;;;;3.77;0.73;;;;;;;7.20;93.15;100048.50;4919758;29;20474;-78
2020/12/08 07:06:45;;;;;;;1.80;0.30;;;;;;;7.12;93.49;100051.38;4923195;29;20452;-79
2020/12/08 07:09:11;;;;;;;1.57;0.40;;;;;;;7.18;93.63;100058.78;4912748;29;20451;-80
2020/12/08 07:11:37;;;;;;;3.00;0.73;;;;;;;7.23;93.23;100049.72;4920970;29;20466;-79
2020/12/08 07:14:06;;;;;;;2.30;0.50;;;;;;;7.19;93.58;100049.63;4915815;29;20902;-79
2020/12/08 07:16:34;;;;;;;3.57;0.80;;;;;;;7.20;93.38;100061.13;4919832;29;20220;-79
2020/12/08 07:19:01;;;;;;;2.13;0.50;;;;;;;7.11;93.05;100063.97;4916975;29;20452;-78
2020/12/08 07:21:27;;;;;;;2.53;0.67;;;;;;;7.20;92.95;100063.81;4921156;29;20458;-79
2020/12/08 07:23:54;;;;;;;2.00;0.40;;;;;;;7.19;92.91;100067.59;4943804;28;20456;-78
2020/12/08 07:26:25;;;;;;;1.40;0.20;;;;;;;7.17;92.81;100059.91;4978235;28;20186;-79
2020/12/08 07:28:55;;;;;;;2.43;0.53;;;;;;;7.18;92.85;100066.81;4982258;28;20449;-80
2020/12/08 07:31:23;;;;;;;2.03;0.67;;;;;;;7.11;93.24;100072.00;4983483;28;20444;-79
2020/12/08 07:33:50;;;;;;;2.13;0.60;;;;;;;7.16;92.92;100076.31;4996654;28;20560;-80
2020/12/08 07:36:21;;;;;;;3.50;0.90;;;;;;;7.15;92.73;100078.22;4983993;28;20462;-79
2020/12/08 07:38:50;;;;;;;2.30;0.73;;;;;;;7.10;92.69;100069.66;4983979;28;20452;-79
2020/12/08 07:41:36;;;;;;;2.23;0.50;;;;;;;7.18;92.37;100080.19;4983505;28;20452;-79
2020/12/08 07:44:11;;;;;;;3.53;0.40;;;;;;;7.05;92.93;100077.94;4986618;28;20483;-79
2020/12/08 07:46:36;;;;;;;2.27;0.50;;;;;;;7.03;92.87;100078.28;4986065;28;20856;-78
2020/12/08 07:49:07;;;;;;;2.50;0.60;;;;;;;7.09;92.70;100073.44;4985082;28;20455;-79
2020/12/08 07:51:34;;;;;;;3.00;0.67;;;;;;;7.07;92.76;100092.53;4989136;28;20197;-78
2020/12/08 07:54:00;;;;;;;2.03;0.67;;;;;;;7.09;93.27;100074.25;4989563;28;20883;-80
2020/12/08 07:56:33;;;;;;;2.80;0.70;;;;;;;7.11;93.15;100085.38;4986794;28;20515;-82
2020/12/08 07:58:59;;;;;;;2.60;0.40;;;;;;;7.09;93.64;100071.56;4985335;28;20448;-78
2020/12/08 08:01:25;;;;;;;2.83;0.97;;;;;;;7.15;93.59;100075.53;4985489;28;20452;-78
2020/12/08 08:03:51;;;;;;;2.20;0.67;;;;;;;7.16;93.50;100079.00;4984653;28;20876;-80
2020/12/08 08:06:24;;;;;;;2.30;0.70;;;;;;;7.19;93.08;100075.63;4984117;28;21044;-78
2020/12/08 08:08:50;;;;;;;1.77;0.40;;;;;;;7.09;93.15;100068.09;4984256;28;20452;-78
2020/12/08 08:11:17;;;;;;;2.03;0.40;;;;;;;7.11;93.05;100073.88;4984330;28;20433;-78
2020/12/08 08:13:43;;;;;;;2.40;0.50;;;;;;;7.03;93.36;100080.97;4969854;28;20472;-78
2020/12/08 08:16:12;;;;;;;2.07;0.60;;;;;;;7.08;93.61;100067.31;4983582;28;20508;-79
2020/12/08 08:18:39;;;;;;;2.37;0.30;;;;;;;7.15;93.33;100070.19;4965528;28;20517;-82
2020/12/08 08:21:05;;;;;;;2.30;0.67;;;;;;;7.07;93.63;100065.00;4975261;28;20452;-79
2020/12/08 08:23:31;;;;;;;2.30;0.60;;;;;;;7.07;93.39;100065.78;4998571;28;20461;-78
2020/12/08 08:25:58;;;;;;;1.90;0.50;;;;;;;7.11;93.38;100071.22;4990490;28;20949;-78
2020/12/08 08:28:25;;;;;;;2.70;0.77;;;;;;;7.12;93.53;100073.53;4977344;28;21281;-78
2020/12/08 08:30:51;;;;;;;3.97;0.70;;;;;;;7.06;93.15;100066.13;4974959;28;20449;-79
2020/12/08 08:33:17;;;;;;;1.67;0.50;;;;;;;7.11;93.19;100066.63;4979614;28;20834;-78
2020/12/08 08:35:43;;;;;;;2.60;0.40;;;;;;;7.12;93.39;100057.47;4981770;28;20471;-78
2020/12/08 08:38:08;;;;;;;1.90;0.40;;;;;;;7.17;93.21;100059.91;4982162;28;20205;-78
2020/12/08 08:40:34;;;;;;;2.23;0.33;;;;;;;7.14;93.50;100059.81;4977230;28;21126;-80
2020/12/08 08:43:00;;;;;;;2.80;0.40;;;;;;;7.13;93.89;100061.72;4981388;28;20216;-78
2020/12/08 08:45:26;;;;;;;2.00;0.47;;;;;;;7.22;93.55;100070.34;4985888;28;20197;-78
2020/12/08 08:47:52;;;;;;;2.37;0.63;;;;;;;7.20;93.42;100071.84;4980811;28;20451;-78
2020/12/08 08:50:18;;;;;;;3.50;1.00;;;;;;;7.22;93.38;100065.00;4999309;28;20807;-78
2020/12/08 08:52:44;;;;;;;2.00;0.60;;;;;;;7.22;93.44;100073.03;4978950;28;20476;-78
2020/12/08 08:55:10;;;;;;;2.20;0.67;;;;;;;7.24;93.50;100070.78;5004307;28;20197;-77
2020/12/08 08:57:37;;;;;;;3.30;0.60;;;;;;;7.28;93.34;100065.50;4995124;28;20476;-78
2020/12/08 09:00:05;;;;;;;2.97;0.60;;;;;;;7.28;93.40;100068.97;4997597;28;20437;-78
2020/12/08 09:02:31;;;;;;;1.80;0.40;;;;;;;7.31;93.29;100075.53;4990416;28;20442;-79
2020/12/08 09:04:56;;;;;;;3.43;0.70;;;;;;;7.31;93.45;100075.53;4989192;28;20492;-78
2020/12/08 09:07:22;;;;;;;2.50;0.77;;;;;;;7.34;93.62;100077.50;4986361;28;20186;-80
2020/12/08 09:09:47;;;;;;;2.57;0.70;;;;;;;7.30;93.74;100072.06;4984714;28;20185;-81
2020/12/08 09:12:13;;;;;;;2.70;0.70;;;;;;;7.34;93.39;100069.47;4980368;28;20642;-81
2020/12/08 09:14:38;;;;;;;2.17;0.50;;;;;;;7.37;93.48;100071.47;4975779;28;20643;-80
2020/12/08 09:17:04;;;;;;;1.97;0.53;;;;;;;7.36;93.50;100072.59;4993356;28;20272;-80
2020/12/08 09:19:29;;;;;;;2.57;0.30;;;;;;;7.38;93.88;100080.25;4972864;28;20182;-80
2020/12/08 09:22:15;;;;;;;2.70;0.60;;;;;;;7.35;93.94;100086.31;4974208;28;20207;-81
2020/12/08 09:24:40;;;;;;;3.60;0.83;;;;;;;7.26;95.54;100083.81;4980432;28;20220;-79
2020/12/08 09:27:06;;;;;;;2.10;0.60;;;;;;;7.30;95.59;100079.31;4961956;28;20453;-80
2020/12/08 09:29:35;;;;;;;2.37;0.60;;;;;;;7.37;95.58;100084.06;4978330;28;20733;-80
2020/12/08 09:32:02;;;;;;;2.07;0.50;;;;;;;7.35;95.91;100087.09;4957372;28;20214;-78
2020/12/08 09:34:28;;;;;;;3.23;0.90;;;;;;;7.38;96.04;100088.28;4967933;28;20968;-79
2020/12/08 09:36:54;;;;;;;2.83;0.60;;;;;;;7.37;96.76;100089.44;4974520;28;20546;-80
2020/12/08 09:39:21;;;;;;;2.93;0.53;;;;;;;7.34;97.55;100082.09;4977118;28;20217;-80
2020/12/08 09:41:47;;;;;;;2.50;0.67;;;;;;;7.37;98.01;100084.88;4967926;28;20520;-79
2020/12/08 09:44:12;;;;;;;2.50;0.60;;;;;;;7.40;98.21;100088.72;4964060;28;20853;-75
2020/12/08 09:46:39;;;;;;;2.60;0.73;;;;;;;7.43;98.27;100090.72;4985743;28;20457;-80
2020/12/08 09:49:05;;;;;;;2.90;0.80;;;;;;;7.43;98.39;100088.84;4980813;28;20280;-79
2020/12/08 09:51:31;;;;;;;3.63;0.87;;;;;;;7.44;98.58;100084.22;4975948;28;20529;-80
2020/12/08 09:53:57;;;;;;;3.03;0.77;;;;;;;7.45;99.15;100085.81;4976920;28;21134;-80
2020/12/08 09:56:23;;;;;;;2.23;0.47;;;;;;;7.51;99.18;100089.78;4974467;28;20238;-80
2020/12/08 09:58:49;;;;;;;2.90;0.60;;;;;;;7.56;99.38;100084.94;4974687;28;20830;-80
2020/12/08 10:01:15;;;;;;;2.40;0.67;;;;;;;7.57;99.90;100093.75;4976357;28;20445;-78
2020/12/08 10:03:40;;;;;;;2.70;0.73;;;;;;;7.61;99.68;100083.84;4975557;28;20483;-79
2020/12/08 10:06:07;;;;;;;2.73;0.63;;;;;;;7.65;99.47;100082.03;4986882;28;20243;-77
2020/12/08 10:08:32;;;;;;;3.10;0.77;;;;;;;7.62;99.28;100085.44;4986658;28;20249;-78
2020/12/08 10:10:58;;;;;;;2.50;0.70;;;;;;;7.67;99.11;100083.25;4975372;28;20949;-76
2020/12/08 10:13:27;;;;;;;1.97;0.40;;;;;;;7.66;98.69;100079.03;4998247;28;20210;-79
2020/12/08 10:16:07;;;;;;;1.90;0.40;;;;;;;7.65;98.41;100084.72;4986776;28;20303;-79
2020/12/08 10:18:36;;;;;;;2.70;1.07;;;;;;;7.58;98.03;100085.34;4968269;28;20463;-80
2020/12/08 10:21:02;;;;;;;2.13;0.60;;;;;;;7.61;98.37;100089.22;4980296;28;20433;-81
2020/12/08 10:23:28;;;;;;;2.13;0.67;;;;;;;7.56;98.02;100082.25;4974228;28;20288;-80
2020/12/08 10:25:54;;;;;;;2.43;0.70;;;;;;;7.66;97.77;100086.28;4994095;28;20532;-77
2020/12/08 10:28:20;;;;;;;1.80;0.47;;;;;;;7.66;97.67;100092.44;4974472;28;20182;-78
2020/12/08 10:30:46;;;;;;;3.00;1.20;;;;;;;7.72;97.95;100095.63;4980354;28;20313;-78
2020/12/08 10:33:11;;;;;;;2.17;0.80;;;;;;;7.72;97.93;100082.22;4978296;28;20653;-80
2020/12/08 10:35:37;;;;;;;3.20;0.70;;;;;;;7.78;98.11;100086.19;4990282;28;20217;-80
2020/12/08 10:38:02;;;;;;;3.80;0.93;;;;;;;7.80;98.05;100091.97;4983382;28;20193;-81
2020/12/08 10:40:28;;;;;;;2.70;0.83;;;;;;;7.79;98.04;100079.69;4979613;28;20193;-81
2020/12/08 10:43:14;;;;;;;3.27;0.77;;;;;;;7.83;97.62;100084.00;4990310;28;20209;-80
2020/12/08 10:45:39;;;;;;;2.67;0.73;;;;;;;7.84;97.82;100087.47;4979178;28;20197;-81
2020/12/08 10:48:05;;;;;;;2.87;0.77;;;;;;;7.86;97.56;100091.34;4973543;28;20529;-81
2020/12/08 10:50:30;;;;;;;3.07;0.80;;;;;;;7.90;97.33;100092.19;4975989;28;20214;-81
2020/12/08 10:52:56;;;;;;;3.07;1.00;;;;;;;7.94;97.08;100089.56;4968868;28;20368;-80
2020/12/08 10:55:23;;;;;;;3.77;1.07;;;;;;;7.94;97.05;100093.03;4978228;28;20198;-80
2020/12/08 10:57:48;;;;;;;2.50;0.80;;;;;;;7.91;97.18;100088.41;4975226;28;20299;-80
2020/12/08 11:00:14;;;;;;;2.50;0.67;;;;;;;7.95;96.98;100081.22;4979632;28;21190;-80
2020/12/08 11:02:39;;;;;;;3.37;0.80;;;;;;;8.00;97.30;100086.28;4973437;28;20233;-80
2020/12/08 11:05:07;;;;;;;5.47;1.57;;;;;;;7.95;96.84;100091.16;4966685;28;20209;-80
2020/12/08 11:07:33;;;;;;;2.20;0.63;;;;;;;8.06;96.69;100092.91;4976920;28;20694;-79
2020/12/08 11:09:58;;;;;;;3.23;1.17;;;;;;;8.08;96.81;100087.19;4974457;28;20449;-78
2020/12/08 11:12:24;;;;;;;4.03;0.90;;;;;;;8.09;96.90;100083.41;4970729;28;20190;-80
2020/12/08 11:14:50;;;;;;;2.77;0.80;;;;;;;8.10;97.41;100093.00;4977633;28;20186;-81
2020/12/08 11:17:17;;;;;;;3.10;0.87;;;;;;;8.11;97.14;100094.53;4971984;28;20214;-77
2020/12/08 11:19:42;;;;;;;2.63;0.60;;;;;;;8.02;96.44;100085.94;4980290;28;20885;-79
2020/12/08 11:22:09;;;;;;;3.17;0.87;;;;;;;8.06;96.81;100084.09;4973948;28;20445;-79
2020/12/08 11:24:37;;;;;;;3.13;1.00;;;;;;;8.10;96.68;100082.25;4980698;28;20198;-81
2020/12/08 11:27:03;;;;;;;3.13;0.63;;;;;;;8.11;96.52;100075.75;4983524;28;20464;-79
2020/12/08 11:29:28;;;;;;;1.90;0.37;;;;;;;8.13;96.62;100076.97;4981659;28;20440;-79
2020/12/08 11:31:54;;;;;;;2.33;0.60;;;;;;;8.16;96.23;100070.91;4987752;28;20675;-80
2020/12/08 11:34:19;;;;;;;2.90;1.07;;;;;;;8.13;96.46;100073.50;4980337;28;20208;-77
2020/12/08 11:36:45;;;;;;;1.97;0.57;;;;;;;8.11;96.26;100078.44;4985581;28;20647;-79
2020/12/08 11:39:11;;;;;;;3.43;1.00;;;;;;;8.13;96.38;100073.50;4983900;28;20186;-78